createdAt,value
2019-05-29T00:02:57.339Z,98553.44
2019-05-29T00:08:06.177Z,98551.00
2019-05-29T00:13:14.765Z,98555.98
2019-05-29T00:18:22.180Z,98569.39
2019-05-29T00:23:29.552Z,98574.84
2019-05-29T00:28:36.970Z,98588.48
2019-05-29T00:33:45.560Z,98590.52
2019-05-29T00:38:53.007Z,98593.00
2019-05-29T00:44:00.458Z,98602.75
2019-05-29T00:49:07.881Z,98617.78
2019-05-29T00:54:16.455Z,98624.95
2019-05-29T00:59:23.956Z,98629.83
2019-05-29T01:04:31.287Z,98640.76
2019-05-29T01:09:38.648Z,98643.83
2019-05-29T01:14:50.158Z,98649.38
2019-05-29T01:19:55.295Z,98672.63
2019-05-29T01:25:02.643Z,98679.48
2019-05-29T01:30:11.065Z,98698.68
2019-05-29T01:35:19.925Z,98701.83
2019-05-29T01:40:29.447Z,98707.77
2019-05-29T01:45:36.494Z,98712.51
2019-05-29T01:50:44.214Z,98721.16
2019-05-29T01:55:51.608Z,98733.69
2019-05-29T02:00:58.966Z,98746.78
2019-05-29T02:06:06.353Z,98757.83
2019-05-29T02:11:14.969Z,98769.62
2019-05-29T02:16:22.869Z,98776.58
2019-05-29T02:21:30.313Z,98786.95
2019-05-29T02:26:37.731Z,98794.17
2019-05-29T02:31:45.079Z,98798.09
2019-05-29T02:36:52.431Z,98808.50
2019-05-29T02:41:59.810Z,98816.36
2019-05-29T02:47:07.211Z,98822.66
2019-05-29T02:52:14.635Z,98833.28
2019-05-29T02:57:22.843Z,98841.50
2019-05-29T03:02:31.879Z,98852.75
2019-05-29T03:07:39.430Z,98867.16
2019-05-29T03:12:47.667Z,98870.80
2019-05-29T03:17:54.985Z,98874.52
2019-05-29T03:23:02.465Z,98890.81
2019-05-29T03:28:10.037Z,98900.45
2019-05-29T03:33:17.539Z,98907.60
2019-05-29T03:38:26.069Z,98924.73
2019-05-29T03:43:35.795Z,98936.30
2019-05-29T03:48:42.595Z,98941.85
2019-05-29T03:53:49.981Z,98947.12
2019-05-29T03:58:57.380Z,98959.25
2019-05-29T04:04:04.876Z,98964.28
2019-05-29T04:09:12.297Z,98964.30
2019-05-29T04:14:19.755Z,98977.59
2019-05-29T04:19:30.112Z,98988.17
2019-05-29T04:24:41.214Z,99001.40
2019-05-29T04:29:50.898Z,99009.25
2019-05-29T04:34:59.007Z,99013.13
2019-05-29T04:40:07.634Z,99035.41
2019-05-29T04:45:15.475Z,99048.13
2019-05-29T04:50:23.264Z,99052.62
2019-05-29T04:55:32.686Z,99060.33
2019-05-29T05:00:40.688Z,99062.03
2019-05-29T05:05:48.246Z,99071.63
2019-05-29T05:10:55.663Z,99084.42
2019-05-29T05:16:04.968Z,99088.44
2019-05-29T05:21:12.378Z,99101.34
2019-05-29T05:26:19.828Z,99113.41
2019-05-29T05:31:27.265Z,99122.09
2019-05-29T05:36:34.775Z,99125.15
2019-05-29T05:41:42.101Z,99129.16
2019-05-29T05:46:49.624Z,99143.91
2019-05-29T05:51:57.108Z,99149.81
2019-05-29T05:57:04.412Z,99157.21
2019-05-29T06:02:11.833Z,99171.30
2019-05-29T06:07:19.337Z,99166.42
2019-05-29T06:12:26.893Z,99178.34
2019-05-29T06:17:34.471Z,99176.66
2019-05-29T06:22:43.501Z,99181.03
2019-05-29T06:27:51.010Z,99185.70
2019-05-29T06:32:58.301Z,99179.66
2019-05-29T06:38:05.796Z,99187.03
2019-05-29T06:43:23.561Z,99198.45
2019-05-29T06:48:42.912Z,99206.15
2019-05-29T06:53:41.764Z,99209.88
2019-05-29T06:58:50.214Z,99218.60
2019-05-29T07:04:11.376Z,99218.72
2019-05-29T07:09:08.641Z,99228.27
2019-05-29T07:14:16.051Z,99235.73
2019-05-29T07:19:32.790Z,99245.37
2019-05-29T07:24:33.151Z,99243.52
2019-05-29T07:29:41.137Z,99250.86
2019-05-29T07:35:02.265Z,99253.89
2019-05-29T07:39:57.893Z,99264.65
2019-05-29T07:45:05.903Z,99270.89
2019-05-29T07:50:14.188Z,99278.33
2019-05-29T07:55:23.615Z,99286.91
2019-05-29T08:00:35.691Z,99286.87
2019-05-29T08:05:41.086Z,99296.62
2019-05-29T08:10:49.779Z,99296.55
2019-05-29T08:16:02.557Z,99307.94
2019-05-29T08:21:06.177Z,99317.09
2019-05-29T08:26:13.671Z,99310.66
2019-05-29T08:31:21.220Z,99317.38
2019-05-29T08:36:28.512Z,99316.66
2019-05-29T08:41:36.006Z,99320.55
2019-05-29T08:47:01.466Z,99318.61
2019-05-29T08:51:52.411Z,99329.50
2019-05-29T08:56:59.717Z,99337.92
2019-05-29T09:02:07.535Z,99343.84
2019-05-29T09:07:14.849Z,99350.69
2019-05-29T09:12:22.500Z,99359.21
2019-05-29T09:17:30.081Z,99361.60
2019-05-29T09:22:37.721Z,99363.56
2019-05-29T09:27:45.440Z,99365.88
2019-05-29T09:32:53.905Z,99375.89
2019-05-29T09:38:03.144Z,99379.26
2019-05-29T09:43:10.784Z,99380.77
2019-05-29T09:48:21.681Z,99383.95
2019-05-29T09:53:27.759Z,99391.36
2019-05-29T09:58:35.221Z,99390.91
2019-05-29T10:03:42.576Z,99396.52
2019-05-29T10:08:50.149Z,99395.52
2019-05-29T10:13:58.820Z,99394.80
2019-05-29T10:19:07.523Z,99398.61
2019-05-29T10:24:15.674Z,99400.05
2019-05-29T10:29:23.318Z,99410.84
2019-05-29T10:34:31.444Z,99408.85
2019-05-29T10:39:38.873Z,99417.44
2019-05-29T10:44:46.915Z,99416.05
2019-05-29T10:49:54.647Z,99419.64
2019-05-29T10:55:02.454Z,99419.14
2019-05-29T11:00:11.868Z,99422.91
2019-05-29T11:05:19.760Z,99419.67
2019-05-29T11:10:27.164Z,99423.78
2019-05-29T11:15:35.604Z,99421.77
2019-05-29T11:20:43.286Z,99421.70
2019-05-29T11:25:52.074Z,99420.05
2019-05-29T11:31:06.267Z,99424.71
2019-05-29T11:36:12.929Z,99431.75
2019-05-29T11:41:26.202Z,99423.11
2019-05-29T11:46:27.840Z,99427.84
2019-05-29T11:51:35.990Z,99429.59
2019-05-29T11:56:43.449Z,99429.40
2019-05-29T12:01:52.934Z,99432.84
2019-05-29T12:07:01.561Z,99420.28
2019-05-29T12:12:08.947Z,99425.64
2019-05-29T12:17:16.327Z,99424.56
2019-05-29T12:22:24.099Z,99431.97
2019-05-29T12:27:31.466Z,99434.63
2019-05-29T12:32:38.948Z,99432.95
2019-05-29T12:37:46.788Z,99421.06
2019-05-29T12:42:55.639Z,99429.67
2019-05-29T12:48:11.035Z,99417.95
2019-05-29T12:53:28.870Z,99411.47
2019-05-29T12:58:23.816Z,99419.07
2019-05-29T13:03:32.147Z,99422.59
2019-05-29T13:08:39.656Z,99418.14
2019-05-29T13:13:47.431Z,99418.09
2019-05-29T13:18:55.263Z,99421.03
2019-05-29T13:24:04.376Z,99424.11
2019-05-29T13:29:12.795Z,99419.58
2019-05-29T13:34:20.169Z,99416.17
2019-05-29T13:39:29.887Z,99416.18
2019-05-29T13:44:36.875Z,99414.19
2019-05-29T13:49:44.283Z,99417.41
2019-05-29T13:54:51.844Z,99411.40
2019-05-29T14:00:17.064Z,99418.80
2019-05-29T14:05:15.118Z,99411.62
2019-05-29T14:10:24.715Z,99411.33
2019-05-29T14:15:32.276Z,99408.42
2019-05-29T14:20:39.908Z,99412.97
2019-05-29T14:25:50.157Z,99405.84
2019-05-29T14:30:57.620Z,99413.06
2019-05-29T14:36:05.971Z,99418.62
2019-05-29T14:41:14.610Z,99408.38
2019-05-29T14:46:22.241Z,99419.60
2019-05-29T14:51:29.770Z,99413.19
2019-05-29T14:56:37.559Z,99408.95
2019-05-29T15:01:45.675Z,99413.51
2019-05-29T15:06:53.235Z,99413.17
2019-05-29T15:12:03.995Z,99415.11
2019-05-29T15:17:13.033Z,99424.38
2019-05-29T15:22:20.714Z,99417.50
2019-05-29T15:27:28.666Z,99420.41
2019-05-29T15:32:36.178Z,99412.81
2019-05-29T15:37:44.043Z,99409.88
2019-05-29T15:42:51.489Z,99404.38
2019-05-29T15:47:59.044Z,99412.66
2019-05-29T15:53:07.075Z,99416.22
2019-05-29T15:58:15.380Z,99418.80
2019-05-29T16:03:22.782Z,99419.23
2019-05-29T16:08:30.614Z,99417.98
2019-05-29T16:13:38.072Z,99422.23
2019-05-29T16:18:45.949Z,99423.80
2019-05-29T16:23:53.957Z,99423.39
2019-05-29T16:29:02.067Z,99431.43
2019-05-29T16:34:09.851Z,99436.47
2019-05-29T16:39:19.244Z,99434.88
2019-05-29T16:44:29.428Z,99449.27
2019-05-29T16:49:36.657Z,99449.06
2019-05-29T16:54:44.095Z,99448.38
2019-05-29T16:59:51.427Z,99450.25
2019-05-29T17:04:59.939Z,99452.13
2019-05-29T17:10:07.716Z,99457.73
2019-05-29T17:15:17.150Z,99462.16
2019-05-29T17:20:41.243Z,99466.03
2019-05-29T17:25:48.685Z,99478.16
2019-05-29T17:30:56.171Z,99474.03
2019-05-29T17:36:03.663Z,99482.69
2019-05-29T17:41:11.061Z,99482.95
2019-05-29T17:46:19.722Z,99483.08
2019-05-29T17:51:27.141Z,99491.92
2019-05-29T17:56:36.980Z,99496.19
2019-05-29T18:01:43.592Z,99499.31
2019-05-29T18:06:56.455Z,99506.53
2019-05-29T18:12:02.770Z,99517.03
2019-05-29T18:17:10.170Z,99519.64
2019-05-29T18:22:17.617Z,99525.75
2019-05-29T18:27:26.017Z,99534.41
2019-05-29T18:32:33.574Z,99537.08
2019-05-29T18:37:41.236Z,99543.55
2019-05-29T18:42:48.597Z,99542.41
2019-05-29T18:47:56.015Z,99549.97
2019-05-29T18:53:03.481Z,99553.11
2019-05-29T18:58:10.894Z,99559.30
2019-05-29T19:03:18.392Z,99567.73
2019-05-29T19:08:25.926Z,99576.10
2019-05-29T19:13:36.704Z,99587.26
2019-05-29T19:18:42.876Z,99586.28
2019-05-29T19:23:50.279Z,99597.61
2019-05-29T19:28:57.777Z,99606.16
2019-05-29T19:34:05.254Z,99619.78
2019-05-29T19:39:13.638Z,99632.22
2019-05-29T19:44:21.073Z,99634.95
2019-05-29T19:49:28.887Z,99640.55
2019-05-29T19:54:36.293Z,99652.23
2019-05-29T19:59:43.689Z,99656.16
2019-05-29T20:04:51.132Z,99659.11
2019-05-29T20:09:58.581Z,99671.72
2019-05-29T20:15:08.064Z,99671.70
2019-05-29T20:20:15.836Z,99673.56
2019-05-29T20:25:23.103Z,99675.47
2019-05-29T20:30:30.666Z,99689.45
2019-05-29T20:35:39.153Z,99697.22
2019-05-29T20:40:46.744Z,99702.52
2019-05-29T20:45:54.147Z,99707.34
2019-05-29T20:51:01.587Z,99707.46
2019-05-29T20:56:08.983Z,99706.41
2019-05-29T21:01:16.506Z,99721.33
2019-05-29T21:06:24.028Z,99726.17
2019-05-29T21:11:31.386Z,99727.60
2019-05-29T21:16:39.771Z,99735.95
2019-05-29T21:21:47.350Z,99734.30
2019-05-29T21:26:54.703Z,99734.97
2019-05-29T21:32:02.164Z,99736.98
2019-05-29T21:37:09.544Z,99746.42
2019-05-29T21:42:16.968Z,99749.42
2019-05-29T21:47:24.397Z,99751.61
2019-05-29T21:52:31.799Z,99755.82
2019-05-29T21:57:42.283Z,99760.77
2019-05-29T22:02:48.616Z,99767.50
2019-05-29T22:07:56.126Z,99767.30
2019-05-29T22:13:03.657Z,99769.80
2019-05-29T22:18:11.104Z,99779.30
2019-05-29T22:23:18.460Z,99778.57
2019-05-29T22:28:25.872Z,99776.72
2019-05-29T22:33:33.245Z,99785.40
2019-05-29T22:38:40.644Z,99782.36
2019-05-29T22:43:48.116Z,99786.22
2019-05-29T22:48:55.887Z,99788.47
2019-05-29T22:54:03.351Z,99794.00
2019-05-29T22:59:10.722Z,99788.86
2019-05-29T23:04:18.133Z,99788.63
2019-05-29T23:09:26.513Z,99792.23
2019-05-29T23:14:34.819Z,99796.47
2019-05-29T23:19:42.117Z,99783.77
2019-05-29T23:24:49.470Z,99787.88
2019-05-29T23:29:56.863Z,99786.00
2019-05-29T23:35:04.475Z,99791.92
2019-05-29T23:40:12.011Z,99793.52
2019-05-29T23:45:19.588Z,99798.86
2019-05-29T23:50:26.948Z,99791.42
2019-05-29T23:55:34.370Z,99793.65
